Time;durP1;ratioP1;P1;durP2;ratioP2;P2;SDS_P1;SDS_P2;PMS_P1;PMS_P2;Temp;Humidity;BMP_temperature;BMP_pressure;BME280_temperature;BME280_humidity;BME280_pressure;Samples;Min_cycle;Max_cycle;Signal;HPM_P1;HPM_P2
2021/11/08 00:02:06;;;;;;;6.57;2.78;;;22.10;52.20;;;;;;5254266;28;20062;-55
2021/11/08 00:04:39;;;;;;;7.00;2.60;;;22.10;52.20;;;;;;5254466;28;20045;-50
2021/11/08 00:07:11;;;;;;;11.95;3.42;;;22.10;52.10;;;;;;5259325;28;20047;-52
2021/11/08 00:09:45;;;;;;;6.07;3.08;;;22.10;52.20;;;;;;5261285;28;20040;-51
2021/11/08 00:12:21;;;;;;;9.80;2.83;;;22.10;52.40;;;;;;5226074;28;20048;-51
2021/11/08 00:14:57;;;;;;;6.22;3.00;;;22.10;52.20;;;;;;5261676;28;20495;-52
2021/11/08 00:20:24;;;;;;;6.38;2.70;;;22.10;52.30;;;;;;5251180;28;20407;-53
2021/11/08 00:22:57;;;;;;;4.22;2.63;;;22.00;52.30;;;;;;5254862;28;20052;-52
2021/11/08 00:25:29;;;;;;;4.78;2.58;;;22.10;52.50;;;;;;5254308;28;20051;-51
2021/11/08 00:28:02;;;;;;;9.40;3.43;;;22.10;52.50;;;;;;5255818;28;20042;-55
2021/11/08 00:30:36;;;;;;;6.20;2.77;;;22.10;52.50;;;;;;5252331;28;20043;-53
2021/11/08 00:33:15;;;;;;;4.63;2.60;;;22.10;52.40;;;;;;5259989;28;20042;-51
2021/11/08 00:35:51;;;;;;;6.80;2.75;;;22.00;52.30;;;;;;5238465;28;20048;-55
2021/11/08 00:38:24;;;;;;;5.95;2.75;;;22.00;52.30;;;;;;5258340;28;20082;-55
2021/11/08 00:40:58;;;;;;;12.98;3.22;;;22.00;52.30;;;;;;5238547;28;20050;-52
2021/11/08 00:43:31;;;;;;;5.13;2.78;;;22.00;52.20;;;;;;5258496;28;20047;-50
2021/11/08 00:46:04;;;;;;;6.93;2.92;;;22.00;52.20;;;;;;5241896;28;20055;-52
2021/11/08 00:48:37;;;;;;;4.65;2.50;;;22.00;52.20;;;;;;5238659;28;21204;-53
2021/11/08 00:51:09;;;;;;;5.57;2.80;;;22.00;52.20;;;;;;5242413;28;20639;-56
2021/11/08 00:53:42;;;;;;;4.85;2.72;;;22.00;52.20;;;;;;5229858;28;20291;-53
2021/11/08 00:56:18;;;;;;;7.27;2.20;;;22.00;52.20;;;;;;5194870;28;20059;-56
2021/11/08 00:58:51;;;;;;;6.68;2.88;;;22.00;52.30;;;;;;5217566;28;20491;-51
2021/11/08 01:01:23;;;;;;;5.50;2.22;;;22.00;52.30;;;;;;5233496;28;20050;-51
2021/11/08 01:03:56;;;;;;;3.13;2.22;;;22.00;52.20;;;;;;5243711;28;20047;-56
2021/11/08 01:06:28;;;;;;;5.13;2.80;;;22.00;52.20;;;;;;5243732;28;20070;-54
2021/11/08 01:09:00;;;;;;;5.82;2.75;;;22.00;52.30;;;;;;5241145;28;20276;-53
2021/11/08 01:11:34;;;;;;;5.63;2.17;;;22.00;52.30;;;;;;5240235;28;20150;-56
2021/11/08 01:14:06;;;;;;;5.72;2.30;;;22.00;52.30;;;;;;5236451;28;20047;-56
2021/11/08 01:16:39;;;;;;;4.28;2.85;;;22.00;52.30;;;;;;5242550;28;20051;-54
2021/11/08 01:19:13;;;;;;;3.28;2.17;;;22.00;52.20;;;;;;5245681;28;20044;-55
2021/11/08 01:21:46;;;;;;;6.50;2.67;;;22.00;52.20;;;;;;5241338;28;20062;-52
2021/11/08 01:24:18;;;;;;;4.60;2.53;;;22.00;52.10;;;;;;5245744;28;20043;-53
2021/11/08 01:26:51;;;;;;;3.10;2.20;;;22.00;52.10;;;;;;5238262;28;20070;-53
2021/11/08 01:29:23;;;;;;;3.20;2.20;;;22.00;52.10;;;;;;5239794;28;20043;-56
2021/11/08 01:31:56;;;;;;;4.60;2.40;;;22.00;52.10;;;;;;5249569;28;20042;-56
2021/11/08 01:34:30;;;;;;;5.53;2.17;;;22.00;52.10;;;;;;5238672;28;20039;-53
2021/11/08 01:37:04;;;;;;;2.25;1.60;;;21.90;52.10;;;;;;5242167;28;20475;-51
2021/11/08 01:39:37;;;;;;;4.95;2.30;;;22.00;52.20;;;;;;5228226;28;20050;-55
2021/11/08 01:42:12;;;;;;;;;;;22.00;52.20;;;;;;5241237;28;20752;-53
2021/11/08 01:44:45;;;;;;;2.85;2.28;;;21.90;52.20;;;;;;5236590;28;19958;-53
2021/11/08 01:47:17;;;;;;;3.22;1.88;;;21.90;52.30;;;;;;5237283;28;20051;-54
2021/11/08 01:49:50;;;;;;;3.80;2.10;;;21.90;52.40;;;;;;5232440;28;20423;-55
2021/11/08 01:52:22;;;;;;;6.35;2.20;;;21.90;52.30;;;;;;5231006;28;20515;-55
2021/11/08 01:54:55;;;;;;;4.87;2.20;;;22.00;52.40;;;;;;5214996;28;20688;-54
2021/11/08 01:57:27;;;;;;;6.43;2.15;;;21.90;52.40;;;;;;5239521;28;20051;-53
2021/11/08 02:00:00;;;;;;;4.13;2.03;;;21.90;52.50;;;;;;5237049;28;20079;-58
2021/11/08 02:02:35;;;;;;;5.85;2.28;;;21.90;52.50;;;;;;5241196;28;20047;-53
2021/11/08 02:05:08;;;;;;;3.70;2.00;;;21.90;52.60;;;;;;5209936;28;20048;-55
2021/11/08 02:07:41;;;;;;;3.10;2.03;;;21.90;52.50;;;;;;5228504;28;20058;-56
2021/11/08 02:10:16;;;;;;;4.07;2.10;;;21.90;52.50;;;;;;5252239;28;20044;-56
2021/11/08 02:12:49;;;;;;;4.95;2.10;;;21.90;52.50;;;;;;5244135;28;20039;-57
2021/11/08 02:15:21;;;;;;;2.80;2.17;;;21.90;52.50;;;;;;5244899;28;20052;-58
2021/11/08 02:17:54;;;;;;;4.03;2.10;;;21.90;52.60;;;;;;5244825;28;20052;-54
2021/11/08 02:20:30;;;;;;;2.30;1.90;;;21.90;52.50;;;;;;5246825;28;20159;-52
2021/11/08 02:23:06;;;;;;;9.20;2.40;;;21.90;52.50;;;;;;5245487;28;20043;-55
2021/11/08 02:25:39;;;;;;;3.63;2.42;;;21.90;52.40;;;;;;5227013;28;20044;-57
2021/11/08 02:28:12;;;;;;;2.90;1.98;;;21.90;52.40;;;;;;5224176;28;20043;-53
2021/11/08 02:30:46;;;;;;;5.30;2.13;;;21.90;52.50;;;;;;5238306;28;20137;-57
2021/11/08 02:33:19;;;;;;;;;;;21.90;52.40;;;;;;5234707;28;20046;-57
2021/11/08 02:35:54;;;;;;;3.65;2.00;;;21.90;52.40;;;;;;5207077;28;19947;-57
2021/11/08 02:38:30;;;;;;;4.47;2.00;;;21.90;52.50;;;;;;5246508;28;20062;-52
2021/11/08 02:41:02;;;;;;;3.83;1.98;;;21.90;52.40;;;;;;5241203;28;20514;-55
2021/11/08 02:43:36;;;;;;;2.55;1.73;;;21.90;52.30;;;;;;5241145;28;20043;-53
2021/11/08 02:46:11;;;;;;;3.42;1.98;;;21.90;52.30;;;;;;5242641;28;20498;-54
2021/11/08 02:48:46;;;;;;;5.07;2.10;;;21.90;52.20;;;;;;5241135;28;20035;-54
2021/11/08 02:51:22;;;;;;;3.83;2.08;;;21.90;52.20;;;;;;5224416;28;20055;-52
2021/11/08 02:54:05;;;;;;;4.45;1.90;;;21.90;52.20;;;;;;5251011;28;20044;-50
2021/11/08 02:56:38;;;;;;;3.40;1.90;;;21.90;52.30;;;;;;5240975;28;20039;-57
2021/11/08 02:59:10;;;;;;;2.65;1.90;;;21.90;52.10;;;;;;5244004;28;20053;-56
2021/11/08 03:01:46;;;;;;;2.72;1.88;;;21.90;52.10;;;;;;5243790;28;20052;-55
2021/11/08 03:04:23;;;;;;;3.53;1.65;;;21.90;52.10;;;;;;5242229;28;20083;-56
2021/11/08 03:06:57;;;;;;;3.50;2.00;;;21.90;52.10;;;;;;5243153;28;20052;-56
2021/11/08 03:09:39;;;;;;;3.25;1.90;;;21.90;52.10;;;;;;5223812;28;20480;-54
2021/11/08 03:12:15;;;;;;;3.60;1.80;;;21.80;52.00;;;;;;5240533;28;20046;-55
2021/11/08 03:15:11;;;;;;;4.22;1.60;;;21.80;52.10;;;;;;5230996;27;20045;-52
2021/11/08 03:17:45;;;;;;;3.95;1.77;;;21.80;52.10;;;;;;5240072;28;20667;-54
2021/11/08 03:20:19;;;;;;;3.92;1.60;;;21.80;52.10;;;;;;5230695;28;20047;-56
2021/11/08 03:22:56;;;;;;;3.97;1.80;;;21.90;52.20;;;;;;5233574;28;21067;-58
2021/11/08 03:28:08;;;;;;;4.97;1.75;;;21.90;52.50;;;;;;5228175;28;20807;-58
2021/11/08 03:30:44;;;;;;;4.90;1.92;;;21.90;52.50;;;;;;5227463;28;20059;-53
2021/11/08 03:33:17;;;;;;;4.43;1.83;;;21.90;52.60;;;;;;5227141;28;20078;-56
2021/11/08 03:35:50;;;;;;;3.88;1.55;;;21.90;52.70;;;;;;5235034;28;20110;-51
2021/11/08 03:38:23;;;;;;;4.28;1.90;;;21.90;52.70;;;;;;5208641;28;20521;-52
2021/11/08 03:40:55;;;;;;;3.85;1.75;;;21.90;52.70;;;;;;5234693;28;20058;-54
2021/11/08 03:43:28;;;;;;;3.30;1.83;;;21.90;52.80;;;;;;5210793;28;20052;-56
2021/11/08 03:46:02;;;;;;;4.22;1.88;;;21.90;52.90;;;;;;5241692;28;20058;-49
2021/11/08 03:48:35;;;;;;;4.03;2.05;;;21.90;52.90;;;;;;5234530;28;20043;-56
2021/11/08 03:51:08;;;;;;;;;;;21.90;53.00;;;;;;5232417;28;20043;-57
2021/11/08 03:53:41;;;;;;;4.30;1.67;;;21.80;53.00;;;;;;5231866;28;19928;-53
2021/11/08 03:56:14;;;;;;;2.33;1.40;;;21.90;53.10;;;;;;5239611;28;20044;-54
2021/11/08 03:58:46;;;;;;;3.63;1.52;;;21.90;53.10;;;;;;5233402;28;20055;-54
2021/11/08 04:01:19;;;;;;;5.35;1.73;;;21.90;53.20;;;;;;5230627;27;20048;-55
2021/11/08 04:03:51;;;;;;;2.88;1.77;;;21.90;53.20;;;;;;5245304;28;20067;-50
2021/11/08 04:06:24;;;;;;;2.95;1.60;;;21.90;53.20;;;;;;5224431;28;20047;-57
2021/11/08 04:08:58;;;;;;;2.78;1.83;;;21.90;53.30;;;;;;5239430;28;20047;-53
2021/11/08 04:11:31;;;;;;;4.28;1.80;;;21.90;53.30;;;;;;5235895;28;20039;-53
2021/11/08 04:14:06;;;;;;;2.92;1.42;;;21.90;53.30;;;;;;5237865;28;20047;-49
2021/11/08 04:16:40;;;;;;;;;;;21.90;53.30;;;;;;5238846;28;20093;-52
2021/11/08 04:19:13;;;;;;;5.70;1.60;;;21.90;53.50;;;;;;5240957;28;19991;-57
2021/11/08 04:21:46;;;;;;;4.43;1.92;;;21.90;53.50;;;;;;5216822;28;21062;-51
2021/11/08 04:24:18;;;;;;;4.70;1.90;;;21.90;53.60;;;;;;5228765;27;20063;-54
2021/11/08 04:26:52;;;;;;;4.47;1.83;;;21.90;53.70;;;;;;5236405;28;20051;-57
2021/11/08 04:29:24;;;;;;;;;;;21.90;53.70;;;;;;5232812;28;20053;-53
2021/11/08 04:31:58;;;;;;;5.75;1.75;;;21.90;53.70;;;;;;5227919;28;20548;-53
2021/11/08 04:34:42;;;;;;;7.18;1.98;;;21.90;53.80;;;;;;5219556;28;20082;-49
2021/11/08 04:40:21;;;;;;;8.75;1.80;;;21.90;53.80;;;;;;5216393;28;20054;-54
2021/11/08 04:48:48;;;;;;;3.70;1.70;;;21.90;53.90;;;;;;5232278;28;20060;-50
2021/11/08 04:54:16;;;;;;;4.93;1.70;;;21.90;54.00;;;;;;5232817;28;20047;-54
2021/11/08 05:25:29;;;;;;;4.93;1.55;;;21.90;54.20;;;;;;5229404;28;20546;-56
2021/11/08 05:28:31;;;;;;;4.97;1.88;;;21.90;54.20;;;;;;5234800;28;20059;-50
2021/11/08 05:30:56;;;;;;;6.05;1.73;;;21.90;54.20;;;;;;5243544;28;20055;-49
2021/11/08 05:33:28;;;;;;;2.50;1.37;;;21.90;54.90;;;;;;5238753;28;20866;-55
2021/11/08 05:36:01;;;;;;;3.33;1.40;;;21.90;54.40;;;;;;5236662;28;20043;-51
2021/11/08 05:38:33;;;;;;;3.55;1.40;;;21.90;54.40;;;;;;5232431;28;20054;-51
2021/11/08 05:41:06;;;;;;;3.85;1.70;;;22.00;54.50;;;;;;5233363;28;20044;-57
2021/11/08 05:43:38;;;;;;;3.73;1.60;;;22.00;54.40;;;;;;5240286;28;20044;-49
2021/11/08 05:46:11;;;;;;;4.88;1.58;;;22.00;54.20;;;;;;5244516;28;20055;-50
2021/11/08 05:48:43;;;;;;;4.57;1.43;;;22.00;54.20;;;;;;5247911;28;20044;-55
2021/11/08 05:51:16;;;;;;;4.60;1.60;;;22.10;54.20;;;;;;5249245;28;20046;-52
2021/11/08 05:53:50;;;;;;;6.05;1.33;;;22.10;54.80;;;;;;5248656;28;20098;-56
2021/11/08 06:50:07;;;;;;;3.92;1.70;;;22.30;53.50;;;;;;5264325;28;20035;-55
2021/11/08 06:52:39;;;;;;;11.88;1.60;;;22.30;53.50;;;;;;5266090;28;20035;-49
2021/11/08 06:55:12;;;;;;;5.70;1.50;;;22.30;53.90;;;;;;5267344;28;20044;-51
2021/11/08 06:57:50;;;;;;;4.80;1.30;;;22.30;53.40;;;;;;5263774;28;20052;-54
2021/11/08 07:00:25;;;;;;;5.47;1.77;;;22.30;53.40;;;;;;5266489;28;20044;-52
2021/11/08 07:02:57;;;;;;;5.97;1.52;;;22.30;53.30;;;;;;5266741;28;20055;-50
2021/11/08 07:05:30;;;;;;;7.45;1.90;;;22.30;53.30;;;;;;5264919;28;20054;-53
2021/11/08 07:08:06;;;;;;;3.72;1.23;;;22.40;53.30;;;;;;5264839;28;20055;-52
2021/11/08 07:10:39;;;;;;;4.70;1.67;;;22.40;53.30;;;;;;5263183;28;20052;-53
2021/11/08 07:13:16;;;;;;;5.80;1.63;;;22.40;53.30;;;;;;5265149;28;20051;-55
2021/11/08 07:15:48;;;;;;;4.38;1.52;;;22.40;53.20;;;;;;5266049;28;20040;-56
2021/11/08 07:18:21;;;;;;;4.78;1.42;;;22.40;53.20;;;;;;5262325;28;20094;-56
2021/11/08 07:20:53;;;;;;;2.53;1.20;;;22.40;53.10;;;;;;5267684;28;20047;-52
2021/11/08 07:23:26;;;;;;;4.13;1.38;;;22.40;53.10;;;;;;5264902;28;20836;-54
2021/11/08 07:25:58;;;;;;;1.65;1.20;;;22.40;53.10;;;;;;5266722;28;20048;-54
2021/11/08 07:28:30;;;;;;;3.47;1.35;;;22.40;53.10;;;;;;5262147;28;20031;-49
2021/11/08 07:31:03;;;;;;;3.00;1.35;;;22.40;53.00;;;;;;5268625;28;20059;-56
2021/11/08 07:33:37;;;;;;;2.57;1.37;;;22.40;53.00;;;;;;5268539;28;20046;-56
2021/11/08 07:36:10;;;;;;;2.95;1.33;;;22.40;53.00;;;;;;5265643;28;20040;-57
2021/11/08 07:38:42;;;;;;;2.22;1.30;;;22.50;53.00;;;;;;5245127;28;20531;-48
2021/11/08 07:41:15;;;;;;;1.98;1.15;;;22.50;53.00;;;;;;5266648;28;20062;-54
2021/11/08 07:43:48;;;;;;;4.53;1.10;;;22.50;53.00;;;;;;5267998;28;20055;-54
2021/11/08 07:46:20;;;;;;;7.43;1.88;;;22.50;52.90;;;;;;5251973;28;20059;-52
2021/11/08 07:48:52;;;;;;;5.60;1.58;;;22.50;52.90;;;;;;5268615;28;20063;-51
2021/11/08 07:51:25;;;;;;;3.38;1.50;;;22.50;53.50;;;;;;5261801;28;20044;-50
2021/11/08 07:53:57;;;;;;;2.63;1.70;;;22.50;52.90;;;;;;5263521;28;20637;-51
2021/11/08 07:56:30;;;;;;;3.05;1.40;;;22.50;52.80;;;;;;5265367;28;20526;-55
2021/11/08 07:59:02;;;;;;;3.47;1.65;;;22.50;52.80;;;;;;5270827;28;20051;-51
2021/11/08 08:01:34;;;;;;;3.08;1.40;;;22.50;52.80;;;;;;5262732;28;20051;-50
2021/11/08 08:04:07;;;;;;;3.58;1.70;;;22.60;52.80;;;;;;5250101;28;20047;-52
2021/11/08 08:06:40;;;;;;;2.80;1.38;;;22.50;52.80;;;;;;5267144;28;20068;-51
2021/11/08 08:09:12;;;;;;;4.60;1.70;;;22.50;52.80;;;;;;5266501;28;20048;-58
2021/11/08 08:11:45;;;;;;;2.15;1.42;;;22.50;52.80;;;;;;5268956;28;20058;-50
2021/11/08 08:14:18;;;;;;;4.68;1.25;;;22.50;53.40;;;;;;5266633;28;20044;-55
2021/11/08 08:16:52;;;;;;;3.53;1.40;;;22.50;52.70;;;;;;5254580;28;20044;-52
2021/11/08 08:19:25;;;;;;;1.27;1.10;;;22.60;52.80;;;;;;5261385;27;20424;-53
2021/11/08 08:21:58;;;;;;;1.38;1.10;;;22.60;52.70;;;;;;5264881;28;20055;-50
2021/11/08 08:24:30;;;;;;;1.90;1.30;;;22.60;52.70;;;;;;5263660;28;20043;-53
2021/11/08 08:27:04;;;;;;;3.00;1.35;;;22.60;52.70;;;;;;5267020;28;20055;-53
2021/11/08 08:29:36;;;;;;;2.60;1.45;;;22.60;52.70;;;;;;5263854;28;20062;-51
2021/11/08 08:32:14;;;;;;;2.75;1.15;;;22.60;52.70;;;;;;5231713;28;20126;-52
2021/11/08 08:34:55;;;;;;;2.53;1.20;;;22.60;52.70;;;;;;5262518;28;20036;-49
2021/11/08 08:37:30;;;;;;;3.03;1.23;;;22.60;52.70;;;;;;5263985;28;20082;-50
2021/11/08 08:40:04;;;;;;;1.63;1.17;;;22.60;52.70;;;;;;5264355;28;20054;-52
2021/11/08 08:42:37;;;;;;;2.70;1.50;;;22.60;52.70;;;;;;5267225;28;20470;-50
2021/11/08 08:45:10;;;;;;;1.60;1.20;;;22.60;52.70;;;;;;5263953;28;20078;-48
2021/11/08 08:47:47;;;;;;;4.47;1.70;;;22.60;52.60;;;;;;5263661;28;20039;-55
2021/11/08 08:50:19;;;;;;;1.80;1.30;;;22.60;52.70;;;;;;5268617;28;20902;-52
2021/11/08 08:52:52;;;;;;;2.30;1.77;;;22.60;52.60;;;;;;5267159;28;20385;-52
2021/11/08 08:55:25;;;;;;;2.92;1.35;;;22.60;52.60;;;;;;5267168;28;20047;-51
2021/11/08 08:57:58;;;;;;;3.33;1.40;;;22.70;52.70;;;;;;5266993;28;20040;-53
2021/11/08 09:00:31;;;;;;;3.78;1.20;;;22.60;52.60;;;;;;5262243;28;20444;-49
2021/11/08 09:03:04;;;;;;;2.47;1.45;;;22.70;52.70;;;;;;5268723;28;20051;-54
2021/11/08 09:05:36;;;;;;;1.75;1.40;;;22.70;52.60;;;;;;5267832;28;20114;-49
2021/11/08 09:08:09;;;;;;;2.30;1.48;;;22.70;52.60;;;;;;5266199;28;20437;-51
2021/11/08 09:10:42;;;;;;;3.83;1.40;;;22.70;52.60;;;;;;5265811;28;20408;-52
2021/11/08 09:13:18;;;;;;;1.50;1.15;;;22.70;52.60;;;;;;5250004;28;20039;-50
2021/11/08 09:15:51;;;;;;;2.70;1.52;;;22.70;52.60;;;;;;5262584;28;20047;-52
2021/11/08 09:18:23;;;;;;;2.45;1.30;;;22.70;52.60;;;;;;5263366;28;20158;-55
2021/11/08 09:20:56;;;;;;;3.75;1.20;;;22.70;52.60;;;;;;5266030;28;20055;-53
2021/11/08 09:23:28;;;;;;;2.17;1.50;;;22.70;52.60;;;;;;5248107;28;20063;-50
2021/11/08 09:26:02;;;;;;;3.13;1.63;;;22.70;52.70;;;;;;5263827;28;20050;-54
2021/11/08 09:28:35;;;;;;;1.67;1.30;;;22.60;52.70;;;;;;5262886;28;20055;-51
2021/11/08 09:31:08;;;;;;;1.98;1.10;;;22.60;52.60;;;;;;5264910;28;21318;-50
2021/11/08 09:33:42;;;;;;;2.70;1.50;;;22.60;52.70;;;;;;5264671;28;20049;-48
2021/11/08 09:36:15;;;;;;;1.63;1.17;;;22.60;52.70;;;;;;5266876;28;20044;-55
2021/11/08 09:38:51;;;;;;;1.10;1.00;;;22.60;52.70;;;;;;5267914;28;20066;-53
2021/11/08 09:41:35;;;;;;;1.65;1.17;;;22.60;52.70;;;;;;5267803;28;21997;-52
2021/11/08 09:44:08;;;;;;;2.58;1.27;;;22.60;52.70;;;;;;5264688;28;20044;-52
2021/11/08 09:46:42;;;;;;;1.90;1.40;;;22.60;52.70;;;;;;5263503;28;20048;-50
2021/11/08 09:49:15;;;;;;;1.83;1.10;;;22.60;52.70;;;;;;5266392;28;20047;-54
2021/11/08 09:51:49;;;;;;;2.63;1.20;;;22.60;52.70;;;;;;5265965;28;20043;-53
2021/11/08 09:54:28;;;;;;;2.20;1.10;;;22.60;52.70;;;;;;5268021;28;20134;-55
2021/11/08 09:57:03;;;;;;;2.67;1.17;;;22.60;52.60;;;;;;5265676;28;20039;-51
2021/11/08 09:59:35;;;;;;;1.92;1.23;;;22.60;52.60;;;;;;5271149;28;20044;-50
2021/11/08 10:02:13;;;;;;;1.77;1.20;;;22.60;53.30;;;;;;5261675;28;20519;-50
2021/11/08 10:04:48;;;;;;;2.65;1.20;;;22.60;52.60;;;;;;5264673;28;20488;-54
2021/11/08 10:07:21;;;;;;;1.88;1.15;;;22.60;52.70;;;;;;5263409;28;20048;-53
2021/11/08 10:09:53;;;;;;;1.52;1.27;;;22.70;52.70;;;;;;5231265;28;20043;-51
2021/11/08 10:12:26;;;;;;;1.25;1.15;;;22.70;52.60;;;;;;5243976;28;20423;-55
2021/11/08 10:14:59;;;;;;;2.00;1.30;;;22.60;52.50;;;;;;5249845;28;20051;-53
2021/11/08 10:17:31;;;;;;;2.23;1.10;;;22.60;52.60;;;;;;5264549;28;20040;-57
2021/11/08 10:20:07;;;;;;;2.65;1.50;;;22.70;52.60;;;;;;5250403;28;20040;-53
2021/11/08 10:22:40;;;;;;;2.38;1.02;;;22.70;52.60;;;;;;5241016;28;20050;-48
2021/11/08 10:25:15;;;;;;;1.73;1.20;;;22.70;52.50;;;;;;5265135;28;20054;-50
2021/11/08 10:27:47;;;;;;;3.13;1.58;;;22.70;52.50;;;;;;5265143;28;20484;-51
2021/11/08 10:30:37;;;;;;;1.55;1.20;;;22.70;52.40;;;;;;5268014;28;20051;-53
2021/11/08 10:33:16;;;;;;;2.33;1.65;;;22.80;52.50;;;;;;5255321;28;20047;-50
2021/11/08 10:35:54;;;;;;;4.25;1.65;;;22.80;52.50;;;;;;5268664;28;20044;-53
2021/11/08 10:38:29;;;;;;;1.70;1.05;;;22.80;52.50;;;;;;5271701;28;20051;-58
2021/11/08 10:41:10;;;;;;;3.13;1.23;;;22.80;52.40;;;;;;5270175;28;20423;-56
2021/11/08 10:43:49;;;;;;;2.17;1.20;;;22.80;52.40;;;;;;5268899;27;20070;-53
2021/11/08 10:46:28;;;;;;;1.83;1.10;;;22.80;52.40;;;;;;5265997;28;20055;-48
2021/11/08 10:49:04;;;;;;;2.38;1.23;;;22.80;52.40;;;;;;5267674;28;21958;-50
2021/11/08 10:51:38;;;;;;;3.10;1.23;;;22.80;52.40;;;;;;5235855;28;20059;-53
2021/11/08 10:54:15;;;;;;;1.50;1.30;;;22.80;52.40;;;;;;5268027;28;20380;-56
2021/11/08 10:56:55;;;;;;;2.65;1.25;;;22.80;52.40;;;;;;5270075;28;20495;-53
2021/11/08 10:59:32;;;;;;;2.00;1.10;;;22.80;52.40;;;;;;5269608;28;20487;-51
2021/11/08 11:02:07;;;;;;;2.35;1.30;;;22.80;52.30;;;;;;5269018;28;20063;-54
2021/11/08 11:04:45;;;;;;;3.15;1.27;;;22.80;52.40;;;;;;5269137;28;20050;-57
2021/11/08 11:07:28;;;;;;;1.48;1.10;;;22.90;52.30;;;;;;5265312;28;20435;-58
2021/11/08 11:10:06;;;;;;;2.40;1.13;;;22.90;52.30;;;;;;5271070;28;20450;-51
2021/11/08 11:12:44;;;;;;;1.20;1.10;;;22.90;52.30;;;;;;5266130;28;20874;-53
2021/11/08 11:15:25;;;;;;;1.30;1.20;;;22.90;52.30;;;;;;5252360;28;20039;-52
2021/11/08 11:17:59;;;;;;;2.00;1.38;;;22.90;52.20;;;;;;5265610;28;20515;-57
2021/11/08 11:20:36;;;;;;;1.48;1.23;;;22.90;52.20;;;;;;5259547;28;20051;-55
2021/11/08 11:23:21;;;;;;;2.97;1.52;;;22.90;52.20;;;;;;5265442;28;20039;-50
2021/11/08 11:26:03;;;;;;;3.03;1.30;;;22.90;52.20;;;;;;5265763;28;20043;-50
2021/11/08 11:28:40;;;;;;;2.50;1.23;;;22.90;52.20;;;;;;5263388;28;22907;-51
2021/11/08 11:31:24;;;;;;;1.70;1.10;;;22.90;52.30;;;;;;5264167;28;20048;-58
2021/11/08 11:34:13;;;;;;;1.90;1.27;;;22.90;52.20;;;;;;5263427;28;20038;-58
2021/11/08 11:36:46;;;;;;;1.35;1.02;;;22.90;52.20;;;;;;5246501;28;20043;-51
2021/11/08 11:39:21;;;;;;;1.85;1.23;;;22.90;52.30;;;;;;5263639;28;20044;-55
2021/11/08 11:41:59;;;;;;;2.78;1.42;;;22.90;52.30;;;;;;5266095;28;20051;-54
2021/11/08 11:44:34;;;;;;;2.50;1.10;;;22.90;52.30;;;;;;5264822;28;20404;-49
2021/11/08 11:47:16;;;;;;;2.92;1.65;;;22.90;52.30;;;;;;5266703;28;20039;-55
2021/11/08 11:49:49;;;;;;;2.95;1.08;;;22.90;52.30;;;;;;5270539;28;20423;-56
2021/11/08 11:52:23;;;;;;;2.17;1.25;;;22.90;52.30;;;;;;5263910;28;20257;-50
2021/11/08 11:54:55;;;;;;;1.27;0.93;;;22.80;52.30;;;;;;5269559;28;20633;-55
2021/11/08 11:57:27;;;;;;;1.75;1.35;;;22.90;52.30;;;;;;5263930;28;20048;-53
2021/11/08 12:00:01;;;;;;;2.22;1.33;;;22.90;52.20;;;;;;5268226;28;20408;-49
2021/11/08 12:02:43;;;;;;;2.33;1.23;;;22.90;52.20;;;;;;5268783;28;20056;-52
2021/11/08 12:05:16;;;;;;;1.05;0.95;;;22.90;52.10;;;;;;5267406;28;20055;-55
2021/11/08 12:07:57;;;;;;;2.42;1.45;;;23.00;52.10;;;;;;5265799;28;20503;-49
2021/11/08 12:10:29;;;;;;;2.25;1.30;;;23.00;52.00;;;;;;5269113;28;20047;-51
2021/11/08 12:13:15;;;;;;;1.77;1.10;;;23.00;51.90;;;;;;5249058;28;20044;-57
2021/11/08 12:15:49;;;;;;;2.25;1.23;;;23.10;51.90;;;;;;5266175;28;20042;-54
2021/11/08 12:18:23;;;;;;;2.03;1.35;;;23.10;51.90;;;;;;5269270;28;20044;-54
2021/11/08 12:20:56;;;;;;;2.67;1.50;;;23.10;51.90;;;;;;5266892;28;20051;-53
2021/11/08 12:23:31;;;;;;;1.88;1.30;;;23.10;51.80;;;;;;5260432;28;20052;-55
2021/11/08 12:26:03;;;;;;;1.20;1.10;;;23.20;52.40;;;;;;5265527;28;20450;-54
2021/11/08 12:28:36;;;;;;;1.52;1.10;;;23.20;51.90;;;;;;5240084;28;20040;-56
2021/11/08 12:31:08;;;;;;;2.15;1.30;;;23.20;51.80;;;;;;5248068;28;20044;-54
2021/11/08 12:33:41;;;;;;;1.42;1.00;;;23.30;51.80;;;;;;5262974;28;20051;-55
2021/11/08 12:36:18;;;;;;;2.22;1.20;;;23.40;51.70;;;;;;5234926;28;20127;-56
2021/11/08 12:39:03;;;;;;;3.50;1.40;;;23.50;51.60;;;;;;5233238;28;20067;-53
2021/11/08 12:41:48;;;;;;;1.73;1.20;;;23.60;51.50;;;;;;5218211;28;20427;-56
2021/11/08 12:44:43;;;;;;;1.75;1.10;;;23.90;50.50;;;;;;5225119;28;20523;-56
2021/11/08 12:47:16;;;;;;;3.40;1.00;;;24.00;50.50;;;;;;5213985;28;20063;-50
2021/11/08 12:49:55;;;;;;;2.38;1.13;;;24.00;50.60;;;;;;5217385;27;20059;-53
2021/11/08 12:52:31;;;;;;;10.65;2.08;;;23.90;50.80;;;;;;5238390;28;20054;-47
2021/11/08 12:55:06;;;;;;;8.20;1.48;;;24.00;50.80;;;;;;5247074;28;20051;-58
2021/11/08 12:57:50;;;;;;;6.97;1.50;;;23.90;51.30;;;;;;5241402;28;20057;-50
2021/11/08 13:00:28;;;;;;;5.25;1.50;;;23.90;51.50;;;;;;5234720;28;20535;-55
2021/11/08 13:03:03;;;;;;;5.72;1.83;;;23.90;51.70;;;;;;5263709;28;20107;-51
2021/11/08 13:05:43;;;;;;;5.28;1.42;;;23.80;52.00;;;;;;5244404;28;20049;-55
2021/11/08 13:08:18;;;;;;;9.82;1.60;;;23.70;52.10;;;;;;5226751;28;20044;-55
2021/11/08 13:10:56;;;;;;;4.30;2.40;;;23.70;52.20;;;;;;5231458;28;20039;-53
2021/11/08 13:13:28;;;;;;;9.63;3.70;;;25.20;50.40;;;;;;5214402;28;20048;-55
2021/11/08 13:16:13;;;;;;;5.78;3.05;;;27.30;46.60;;;;;;5239043;28;20752;-50
2021/11/08 13:18:46;;;;;;;5.25;2.60;;;29.00;43.80;;;;;;5234195;28;20820;-50
2021/11/08 13:21:23;;;;;;;7.43;3.28;;;30.20;41.70;;;;;;5224166;28;20040;-50
2021/11/08 13:23:56;;;;;;;9.48;3.75;;;30.80;40.40;;;;;;5237981;28;21689;-53
2021/11/08 13:26:30;;;;;;;9.57;3.33;;;31.30;39.20;;;;;;5236408;28;20051;-54
2021/11/08 13:29:13;;;;;;;6.13;3.10;;;31.50;38.30;;;;;;5239009;28;20056;-56
2021/11/08 13:31:46;;;;;;;11.40;4.57;;;31.70;37.80;;;;;;5259771;28;20500;-56
2021/11/08 13:34:19;;;;;;;7.97;3.70;;;31.80;37.50;;;;;;5258786;28;21193;-50
2021/11/08 13:36:51;;;;;;;9.27;2.13;;;31.70;37.00;;;;;;5240028;28;20059;-53
2021/11/08 13:39:24;;;;;;;11.70;2.53;;;30.70;37.40;;;;;;5234053;28;20051;-51
2021/11/08 13:41:56;;;;;;;7.35;2.38;;;29.10;39.00;;;;;;5233230;28;20554;-48
2021/11/08 13:44:29;;;;;;;7.68;2.20;;;27.90;40.30;;;;;;5235214;28;20051;-54
2021/11/08 13:47:01;;;;;;;7.85;2.08;;;27.00;41.40;;;;;;5229126;28;20043;-53
2021/11/08 13:49:34;;;;;;;11.43;2.63;;;26.40;42.20;;;;;;5238993;28;20040;-57
2021/11/08 13:52:07;;;;;;;7.28;2.65;;;25.90;42.70;;;;;;5234536;28;20047;-53
2021/11/08 13:54:40;;;;;;;10.27;2.42;;;25.50;43.00;;;;;;5235880;28;20047;-56
2021/11/08 13:57:16;;;;;;;6.37;2.00;;;25.10;43.00;;;;;;5212709;28;20339;-51
2021/11/08 13:59:48;;;;;;;10.65;2.63;;;24.90;43.20;;;;;;5210079;28;20048;-57
2021/11/08 14:02:23;;;;;;;7.20;2.20;;;24.70;43.40;;;;;;5223213;28;20478;-51
2021/11/08 14:04:56;;;;;;;7.38;2.85;;;24.60;43.40;;;;;;5218124;28;20062;-55
2021/11/08 14:07:33;;;;;;;9.23;2.30;;;24.50;43.80;;;;;;5189326;28;20083;-51
2021/11/08 14:10:09;;;;;;;8.82;2.20;;;24.40;44.40;;;;;;5186694;28;20570;-58
2021/11/08 14:12:42;;;;;;;6.35;2.28;;;24.30;44.90;;;;;;5251177;28;20488;-51
2021/11/08 14:15:15;;;;;;;9.43;2.55;;;24.40;45.30;;;;;;5242005;28;25690;-57
2021/11/08 14:17:48;;;;;;;9.20;2.90;;;24.40;45.40;;;;;;5223310;28;20040;-57
2021/11/08 14:20:21;;;;;;;12.23;2.65;;;24.40;45.70;;;;;;5226587;28;20044;-55
2021/11/08 14:22:53;;;;;;;7.13;2.53;;;24.50;46.00;;;;;;5216176;28;20054;-57
2021/11/08 14:25:26;;;;;;;7.00;2.10;;;24.40;46.20;;;;;;5226259;28;20066;-56
2021/11/08 14:27:58;;;;;;;8.50;2.35;;;24.50;46.40;;;;;;5209804;28;20051;-53
2021/11/08 14:30:31;;;;;;;7.97;2.10;;;24.40;46.80;;;;;;5236065;28;20044;-57
2021/11/08 14:33:04;;;;;;;6.80;2.00;;;24.40;46.90;;;;;;5255969;27;20039;-51
2021/11/08 14:35:42;;;;;;;11.57;2.20;;;24.30;47.10;;;;;;5244786;28;20066;-51
2021/11/08 14:38:37;;;;;;;6.13;2.10;;;24.20;48.10;;;;;;5231293;28;21199;-54
2021/11/08 14:41:10;;;;;;;5.55;1.80;;;24.10;47.70;;;;;;5246310;27;20502;-53
2021/11/08 14:43:42;;;;;;;7.00;2.28;;;24.00;48.00;;;;;;5245282;28;20051;-49
2021/11/08 14:46:18;;;;;;;8.82;2.17;;;24.00;48.10;;;;;;5236347;28;20400;-54
2021/11/08 14:48:50;;;;;;;7.22;2.35;;;23.90;48.40;;;;;;5234551;28;20050;-54
2021/11/08 14:51:29;;;;;;;8.45;1.80;;;23.90;48.60;;;;;;5235189;28;20040;-55
2021/11/08 14:54:04;;;;;;;5.10;1.60;;;23.80;48.80;;;;;;5210527;28;20264;-51
2021/11/08 14:56:40;;;;;;;8.20;2.00;;;23.80;48.90;;;;;;5244480;28;20047;-54
2021/11/08 14:59:14;;;;;;;9.65;1.88;;;23.80;49.20;;;;;;5229741;28;20387;-48
2021/11/08 15:01:47;;;;;;;4.75;1.85;;;23.70;49.20;;;;;;5240050;28;20054;-47
2021/11/08 15:04:22;;;;;;;6.97;1.73;;;23.70;49.40;;;;;;5228403;28;20095;-54
2021/11/08 15:06:56;;;;;;;5.30;1.55;;;23.70;49.50;;;;;;5229227;28;20048;-57